sensor_id;sensor_type;location;lat;lon;timestamp;pressure;altitude;pressure_sealevel;temperature;humidity
53719;BME280;39616;48.872;9.390;2023-04-28T00:00:40;98168.50;;;9.18;86.55
53719;BME280;39616;48.872;9.390;2023-04-28T00:03:11;98161.94;;;9.25;85.42
53719;BME280;39616;48.872;9.390;2023-04-28T00:05:41;98166.94;;;9.31;85.49
53719;BME280;39616;48.872;9.390;2023-04-28T00:08:11;98159.06;;;9.35;85.09
53719;BME280;39616;48.872;9.390;2023-04-28T00:10:42;98152.19;;;9.42;85.35
53719;BME280;39616;48.872;9.390;2023-04-28T00:13:12;98156.44;;;9.49;84.51
53719;BME280;39616;48.872;9.390;2023-04-28T00:15:42;98134.41;;;9.55;83.14
53719;BME280;39616;48.872;9.390;2023-04-28T00:18:13;98148.00;;;9.69;80.59
53719;BME280;39616;48.872;9.390;2023-04-28T00:20:43;98153.78;;;9.81;79.28
53719;BME280;39616;48.872;9.390;2023-04-28T00:23:14;98138.38;;;9.96;77.48
53719;BME280;39616;48.872;9.390;2023-04-28T00:25:50;98142.50;;;10.07;77.92
53719;BME280;39616;48.872;9.390;2023-04-28T00:28:21;98143.16;;;10.18;76.88
53719;BME280;39616;48.872;9.390;2023-04-28T00:30:51;98136.81;;;10.22;76.69
53719;BME280;39616;48.872;9.390;2023-04-28T00:33:21;98136.25;;;10.25;76.37
53719;BME280;39616;48.872;9.390;2023-04-28T00:35:59;98137.88;;;10.26;76.70
53719;BME280;39616;48.872;9.390;2023-04-28T00:38:30;98135.66;;;10.28;76.40
53719;BME280;39616;48.872;9.390;2023-04-28T00:41:00;98127.75;;;10.32;76.30
53719;BME280;39616;48.872;9.390;2023-04-28T00:43:30;98121.53;;;10.31;75.97
53719;BME280;39616;48.872;9.390;2023-04-28T00:46:01;98126.53;;;10.38;75.49
53719;BME280;39616;48.872;9.390;2023-04-28T00:48:31;98128.66;;;10.41;75.40
53719;BME280;39616;48.872;9.390;2023-04-28T00:51:01;98129.97;;;10.44;75.58
53719;BME280;39616;48.872;9.390;2023-04-28T00:53:32;98126.13;;;10.45;75.59
53719;BME280;39616;48.872;9.390;2023-04-28T00:56:03;98123.34;;;10.50;75.46
53719;BME280;39616;48.872;9.390;2023-04-28T00:58:33;98120.13;;;10.48;75.12
53719;BME280;39616;48.872;9.390;2023-04-28T01:01:05;98113.59;;;10.49;75.41
53719;BME280;39616;48.872;9.390;2023-04-28T01:03:39;98115.69;;;10.52;75.30
53719;BME280;39616;48.872;9.390;2023-04-28T01:06:09;98112.19;;;10.51;75.23
53719;BME280;39616;48.872;9.390;2023-04-28T01:08:41;98098.94;;;10.50;75.31
53719;BME280;39616;48.872;9.390;2023-04-28T01:11:12;98101.03;;;10.53;75.48
53719;BME280;39616;48.872;9.390;2023-04-28T01:13:43;98090.72;;;10.55;75.77
53719;BME280;39616;48.872;9.390;2023-04-28T01:16:13;98089.72;;;10.51;76.82
53719;BME280;39616;48.872;9.390;2023-04-28T01:18:46;98091.09;;;10.62;75.04
53719;BME280;39616;48.872;9.390;2023-04-28T01:21:35;98092.50;;;10.73;75.10
53719;BME280;39616;48.872;9.390;2023-04-28T01:24:05;98086.16;;;10.64;75.01
53719;BME280;39616;48.872;9.390;2023-04-28T01:26:36;98084.88;;;10.61;75.23
53719;BME280;39616;48.872;9.390;2023-04-28T01:29:06;98083.56;;;10.59;75.50
53719;BME280;39616;48.872;9.390;2023-04-28T01:31:36;98090.09;;;10.58;76.39
53719;BME280;39616;48.872;9.390;2023-04-28T01:34:07;98090.91;;;10.58;76.74
53719;BME280;39616;48.872;9.390;2023-04-28T01:36:37;98085.47;;;10.58;77.35
53719;BME280;39616;48.872;9.390;2023-04-28T01:39:07;98082.78;;;10.58;78.50
53719;BME280;39616;48.872;9.390;2023-04-28T01:41:38;98077.75;;;10.52;78.49
53719;BME280;39616;48.872;9.390;2023-04-28T01:44:08;98074.56;;;10.50;78.85
53719;BME280;39616;48.872;9.390;2023-04-28T01:46:38;98067.81;;;10.47;78.99
53719;BME280;39616;48.872;9.390;2023-04-28T01:49:09;98070.72;;;10.51;78.12
53719;BME280;39616;48.872;9.390;2023-04-28T01:51:39;98075.63;;;10.49;78.38
53719;BME280;39616;48.872;9.390;2023-04-28T01:54:10;98069.94;;;10.50;78.19
53719;BME280;39616;48.872;9.390;2023-04-28T01:56:41;98068.03;;;10.51;78.31
53719;BME280;39616;48.872;9.390;2023-04-28T01:59:11;98068.50;;;10.53;79.20
53719;BME280;39616;48.872;9.390;2023-04-28T02:01:41;98068.63;;;10.48;79.71
53719;BME280;39616;48.872;9.390;2023-04-28T02:04:11;98068.13;;;10.46;80.52
53719;BME280;39616;48.872;9.390;2023-04-28T02:06:42;98063.50;;;10.46;80.12
53719;BME280;39616;48.872;9.390;2023-04-28T02:09:12;98060.81;;;10.46;80.27
53719;BME280;39616;48.872;9.390;2023-04-28T02:11:42;98062.88;;;10.49;80.30
53719;BME280;39616;48.872;9.390;2023-04-28T02:14:13;98058.78;;;10.52;80.46
53719;BME280;39616;48.872;9.390;2023-04-28T02:16:43;98049.03;;;10.51;80.65
53719;BME280;39616;48.872;9.390;2023-04-28T02:19:14;98044.09;;;10.53;80.60
53719;BME280;39616;48.872;9.390;2023-04-28T02:21:44;98045.94;;;10.57;80.09
53719;BME280;39616;48.872;9.390;2023-04-28T02:24:15;98041.00;;;10.59;80.92
53719;BME280;39616;48.872;9.390;2023-04-28T02:26:45;98041.00;;;10.59;80.44
53719;BME280;39616;48.872;9.390;2023-04-28T02:29:16;98046.59;;;10.63;81.12
53719;BME280;39616;48.872;9.390;2023-04-28T02:31:46;98046.13;;;10.61;81.48
53719;BME280;39616;48.872;9.390;2023-04-28T02:34:17;98039.91;;;10.60;81.89
53719;BME280;39616;48.872;9.390;2023-04-28T02:36:47;98036.47;;;10.69;81.27
53719;BME280;39616;48.872;9.390;2023-04-28T02:39:17;98031.44;;;10.76;81.02
53719;BME280;39616;48.872;9.390;2023-04-28T02:41:50;98025.97;;;10.89;78.93
53719;BME280;39616;48.872;9.390;2023-04-28T02:44:21;98026.66;;;10.95;78.29
53719;BME280;39616;48.872;9.390;2023-04-28T02:46:51;98023.44;;;10.93;78.06
53719;BME280;39616;48.872;9.390;2023-04-28T02:49:22;98030.19;;;10.96;78.04
53719;BME280;39616;48.872;9.390;2023-04-28T02:51:52;98030.06;;;11.01;77.26
53719;BME280;39616;48.872;9.390;2023-04-28T02:54:22;98024.34;;;11.02;77.10
53719;BME280;39616;48.872;9.390;2023-04-28T02:56:59;98021.13;;;11.00;77.55
53719;BME280;39616;48.872;9.390;2023-04-28T02:59:29;98019.50;;;10.99;77.36
53719;BME280;39616;48.872;9.390;2023-04-28T03:02:00;98023.72;;;11.05;76.97
53719;BME280;39616;48.872;9.390;2023-04-28T03:04:30;98026.13;;;11.07;76.48
53719;BME280;39616;48.872;9.390;2023-04-28T03:07:00;98030.75;;;11.06;77.23
53719;BME280;39616;48.872;9.390;2023-04-28T03:09:31;98029.94;;;11.06;77.31
53719;BME280;39616;48.872;9.390;2023-04-28T03:12:01;98042.41;;;11.07;78.22
53719;BME280;39616;48.872;9.390;2023-04-28T03:14:32;98047.03;;;11.06;79.11
53719;BME280;39616;48.872;9.390;2023-04-28T03:17:02;98042.81;;;11.00;80.28
53719;BME280;39616;48.872;9.390;2023-04-28T03:19:33;98053.19;;;10.98;80.62
53719;BME280;39616;48.872;9.390;2023-04-28T03:22:03;98035.13;;;10.94;82.64
53719;BME280;39616;48.872;9.390;2023-04-28T03:24:33;98029.78;;;10.88;84.04
53719;BME280;39616;48.872;9.390;2023-04-28T03:27:03;98037.72;;;10.85;87.68
53719;BME280;39616;48.872;9.390;2023-04-28T03:29:34;98033.56;;;10.79;90.59
53719;BME280;39616;48.872;9.390;2023-04-28T03:32:05;98034.84;;;10.68;90.31
53719;BME280;39616;48.872;9.390;2023-04-28T03:34:35;98033.66;;;10.60;91.46
53719;BME280;39616;48.872;9.390;2023-04-28T03:37:06;98028.94;;;10.52;96.42
53719;BME280;39616;48.872;9.390;2023-04-28T03:39:36;98031.25;;;10.45;100.00
53719;BME280;39616;48.872;9.390;2023-04-28T03:42:06;98024.44;;;10.33;100.00
53719;BME280;39616;48.872;9.390;2023-04-28T03:44:37;98004.56;;;10.24;100.00
53719;BME280;39616;48.872;9.390;2023-04-28T03:47:07;98009.56;;;10.17;100.00
53719;BME280;39616;48.872;9.390;2023-04-28T03:49:37;98003.44;;;10.11;100.00
53719;BME280;39616;48.872;9.390;2023-04-28T03:52:07;98012.47;;;10.07;100.00
53719;BME280;39616;48.872;9.390;2023-04-28T03:54:38;98005.16;;;10.07;100.00
53719;BME280;39616;48.872;9.390;2023-04-28T03:57:08;98009.34;;;10.00;100.00
53719;BME280;39616;48.872;9.390;2023-04-28T03:59:38;98008.16;;;9.92;100.00
53719;BME280;39616;48.872;9.390;2023-04-28T04:02:09;98002.22;;;9.90;100.00
53719;BME280;39616;48.872;9.390;2023-04-28T04:04:39;97997.00;;;9.93;100.00
53719;BME280;39616;48.872;9.390;2023-04-28T04:07:10;98000.94;;;9.87;100.00
53719;BME280;39616;48.872;9.390;2023-04-28T04:09:40;98003.63;;;9.87;100.00
53719;BME280;39616;48.872;9.390;2023-04-28T04:12:10;98001.94;;;9.91;100.00
53719;BME280;39616;48.872;9.390;2023-04-28T04:14:41;97996.41;;;9.97;100.00
53719;BME280;39616;48.872;9.390;2023-04-28T04:17:12;97990.72;;;9.98;100.00
53719;BME280;39616;48.872;9.390;2023-04-28T04:19:42;97996.63;;;10.00;100.00
53719;BME280;39616;48.872;9.390;2023-04-28T04:22:15;97997.94;;;10.03;100.00
53719;BME280;39616;48.872;9.390;2023-04-28T04:24:45;97987.56;;;10.05;100.00
53719;BME280;39616;48.872;9.390;2023-04-28T04:27:16;97992.72;;;10.06;100.00
53719;BME280;39616;48.872;9.390;2023-04-28T04:29:46;97997.81;;;10.08;100.00
53719;BME280;39616;48.872;9.390;2023-04-28T04:32:17;97999.25;;;10.05;100.00
53719;BME280;39616;48.872;9.390;2023-04-28T04:34:47;97995.91;;;10.08;100.00
53719;BME280;39616;48.872;9.390;2023-04-28T04:37:18;97989.09;;;10.11;100.00
53719;BME280;39616;48.872;9.390;2023-04-28T04:39:48;97993.19;;;10.08;100.00
53719;BME280;39616;48.872;9.390;2023-04-28T04:42:19;97998.03;;;10.11;100.00
53719;BME280;39616;48.872;9.390;2023-04-28T04:44:49;97998.34;;;10.10;100.00
53719;BME280;39616;48.872;9.390;2023-04-28T04:47:19;98003.84;;;10.05;100.00
53719;BME280;39616;48.872;9.390;2023-04-28T04:49:51;98007.84;;;10.07;100.00
53719;BME280;39616;48.872;9.390;2023-04-28T04:52:22;98005.75;;;10.04;100.00
53719;BME280;39616;48.872;9.390;2023-04-28T04:54:53;97997.03;;;10.07;100.00
53719;BME280;39616;48.872;9.390;2023-04-28T04:57:25;97998.41;;;10.05;100.00
53719;BME280;39616;48.872;9.390;2023-04-28T04:59:56;98003.34;;;10.03;100.00
53719;BME280;39616;48.872;9.390;2023-04-28T05:02:26;98012.28;;;10.03;100.00
53719;BME280;39616;48.872;9.390;2023-04-28T05:04:56;98004.88;;;10.09;100.00
53719;BME280;39616;48.872;9.390;2023-04-28T05:07:27;98002.16;;;10.09;100.00
53719;BME280;39616;48.872;9.390;2023-04-28T05:09:57;97996.91;;;10.12;100.00
53719;BME280;39616;48.872;9.390;2023-04-28T05:12:27;97989.50;;;10.18;100.00
53719;BME280;39616;48.872;9.390;2023-04-28T05:14:58;97977.06;;;10.17;100.00
53719;BME280;39616;48.872;9.390;2023-04-28T05:17:28;97977.25;;;10.21;100.00
53719;BME280;39616;48.872;9.390;2023-04-28T05:19:58;97981.78;;;10.25;100.00
53719;BME280;39616;48.872;9.390;2023-04-28T05:22:29;97985.19;;;10.31;100.00
53719;BME280;39616;48.872;9.390;2023-04-28T05:25:00;97982.06;;;10.37;100.00
53719;BME280;39616;48.872;9.390;2023-04-28T05:27:33;97996.03;;;10.45;100.00
53719;BME280;39616;48.872;9.390;2023-04-28T05:30:05;97995.94;;;10.50;100.00
53719;BME280;39616;48.872;9.390;2023-04-28T05:32:36;97989.00;;;10.57;100.00
53719;BME280;39616;48.872;9.390;2023-04-28T05:35:07;97989.56;;;10.68;100.00
53719;BME280;39616;48.872;9.390;2023-04-28T05:37:37;97981.09;;;10.83;100.00
53719;BME280;39616;48.872;9.390;2023-04-28T05:40:08;97987.38;;;10.93;100.00
53719;BME280;39616;48.872;9.390;2023-04-28T05:42:38;97978.50;;;11.01;100.00
53719;BME280;39616;48.872;9.390;2023-04-28T05:45:09;97985.59;;;11.10;100.00
53719;BME280;39616;48.872;9.390;2023-04-28T05:47:40;97986.91;;;11.13;100.00
53719;BME280;39616;48.872;9.390;2023-04-28T05:50:10;97989.19;;;11.20;100.00
53719;BME280;39616;48.872;9.390;2023-04-28T05:52:40;97986.03;;;11.26;100.00
53719;BME280;39616;48.872;9.390;2023-04-28T05:55:11;97993.28;;;11.31;100.00
53719;BME280;39616;48.872;9.390;2023-04-28T05:57:41;97986.47;;;11.42;100.00
53719;BME280;39616;48.872;9.390;2023-04-28T06:00:12;97982.31;;;11.45;100.00
53719;BME280;39616;48.872;9.390;2023-04-28T06:02:42;97982.31;;;11.45;100.00
53719;BME280;39616;48.872;9.390;2023-04-28T06:05:12;97979.13;;;11.43;100.00
53719;BME280;39616;48.872;9.390;2023-04-28T06:07:43;97973.19;;;11.41;100.00
53719;BME280;39616;48.872;9.390;2023-04-28T06:10:13;97977.34;;;11.38;100.00
53719;BME280;39616;48.872;9.390;2023-04-28T06:12:44;97977.66;;;11.36;100.00
53719;BME280;39616;48.872;9.390;2023-04-28T06:15:14;97978.75;;;11.35;100.00
53719;BME280;39616;48.872;9.390;2023-04-28T06:17:44;97973.94;;;11.32;100.00
53719;BME280;39616;48.872;9.390;2023-04-28T06:20:15;97971.56;;;11.31;100.00
53719;BME280;39616;48.872;9.390;2023-04-28T06:22:45;97974.56;;;11.29;100.00
53719;BME280;39616;48.872;9.390;2023-04-28T06:25:16;97973.91;;;11.24;100.00
53719;BME280;39616;48.872;9.390;2023-04-28T06:27:46;97981.72;;;11.25;100.00
53719;BME280;39616;48.872;9.390;2023-04-28T06:30:21;97984.56;;;11.20;100.00
53719;BME280;39616;48.872;9.390;2023-04-28T06:32:52;97978.63;;;11.18;100.00
53719;BME280;39616;48.872;9.390;2023-04-28T06:35:22;97982.47;;;11.17;100.00
53719;BME280;39616;48.872;9.390;2023-04-28T06:37:53;97979.44;;;11.19;100.00
53719;BME280;39616;48.872;9.390;2023-04-28T06:40:23;97979.88;;;11.12;100.00
53719;BME280;39616;48.872;9.390;2023-04-28T06:42:53;97984.81;;;11.10;100.00
53719;BME280;39616;48.872;9.390;2023-04-28T06:45:24;97975.19;;;11.04;100.00
53719;BME280;39616;48.872;9.390;2023-04-28T06:47:54;97971.47;;;11.00;100.00
53719;BME280;39616;48.872;9.390;2023-04-28T06:50:25;97967.91;;;10.91;100.00
53719;BME280;39616;48.872;9.390;2023-04-28T06:52:55;97969.31;;;10.88;100.00
53719;BME280;39616;48.872;9.390;2023-04-28T06:55:26;97968.63;;;10.82;100.00
53719;BME280;39616;48.872;9.390;2023-04-28T06:57:56;97969.72;;;10.81;100.00
53719;BME280;39616;48.872;9.390;2023-04-28T07:00:27;97957.66;;;10.87;100.00
53719;BME280;39616;48.872;9.390;2023-04-28T07:02:57;97958.28;;;10.84;100.00
53719;BME280;39616;48.872;9.390;2023-04-28T07:05:27;97951.13;;;10.88;100.00
53719;BME280;39616;48.872;9.390;2023-04-28T07:07:58;97956.25;;;10.90;100.00
53719;BME280;39616;48.872;9.390;2023-04-28T07:10:28;97958.16;;;10.89;100.00
53719;BME280;39616;48.872;9.390;2023-04-28T07:12:58;97943.78;;;10.89;100.00
53719;BME280;39616;48.872;9.390;2023-04-28T07:15:28;97955.75;;;10.88;100.00
53719;BME280;39616;48.872;9.390;2023-04-28T07:17:59;97956.44;;;10.94;100.00
53719;BME280;39616;48.872;9.390;2023-04-28T07:20:29;97954.41;;;10.99;100.00
53719;BME280;39616;48.872;9.390;2023-04-28T07:23:00;97945.66;;;11.02;100.00
53719;BME280;39616;48.872;9.390;2023-04-28T07:25:30;97942.19;;;11.10;100.00
53719;BME280;39616;48.872;9.390;2023-04-28T07:28:02;97943.31;;;11.09;100.00
53719;BME280;39616;48.872;9.390;2023-04-28T07:30:33;97953.56;;;11.12;100.00
53719;BME280;39616;48.872;9.390;2023-04-28T07:33:03;97949.53;;;11.10;100.00
53719;BME280;39616;48.872;9.390;2023-04-28T07:35:34;97947.44;;;11.07;100.00
53719;BME280;39616;48.872;9.390;2023-04-28T07:38:04;97942.88;;;10.94;100.00
53719;BME280;39616;48.872;9.390;2023-04-28T07:40:35;97935.47;;;10.85;100.00
53719;BME280;39616;48.872;9.390;2023-04-28T07:43:05;97938.78;;;10.82;100.00
53719;BME280;39616;48.872;9.390;2023-04-28T07:45:40;97946.06;;;10.73;100.00
53719;BME280;39616;48.872;9.390;2023-04-28T07:48:10;97948.91;;;10.68;100.00
53719;BME280;39616;48.872;9.390;2023-04-28T07:50:41;97947.28;;;10.67;100.00
53719;BME280;39616;48.872;9.390;2023-04-28T07:53:11;97957.84;;;10.55;100.00
53719;BME280;39616;48.872;9.390;2023-04-28T07:55:41;97965.19;;;10.54;100.00
53719;BME280;39616;48.872;9.390;2023-04-28T07:58:13;97964.41;;;10.54;100.00
53719;BME280;39616;48.872;9.390;2023-04-28T08:00:44;97966.13;;;10.50;100.00
53719;BME280;39616;48.872;9.390;2023-04-28T08:03:14;97961.50;;;10.50;100.00
53719;BME280;39616;48.872;9.390;2023-04-28T08:05:45;97968.38;;;10.56;100.00
53719;BME280;39616;48.872;9.390;2023-04-28T08:08:15;97963.16;;;10.60;100.00
53719;BME280;39616;48.872;9.390;2023-04-28T08:10:46;97974.00;;;10.60;100.00
53719;BME280;39616;48.872;9.390;2023-04-28T08:13:17;97973.13;;;10.64;100.00
53719;BME280;39616;48.872;9.390;2023-04-28T08:15:48;97978.72;;;10.68;100.00
53719;BME280;39616;48.872;9.390;2023-04-28T08:18:18;97985.75;;;10.69;100.00
53719;BME280;39616;48.872;9.390;2023-04-28T08:20:49;97995.78;;;10.69;100.00
53719;BME280;39616;48.872;9.390;2023-04-28T08:23:19;98006.31;;;10.70;100.00
53719;BME280;39616;48.872;9.390;2023-04-28T08:25:50;98003.31;;;10.72;100.00
53719;BME280;39616;48.872;9.390;2023-04-28T08:28:20;97999.38;;;10.78;100.00
53719;BME280;39616;48.872;9.390;2023-04-28T08:30:51;98001.16;;;10.82;100.00
53719;BME280;39616;48.872;9.390;2023-04-28T08:33:22;98006.19;;;10.89;100.00
53719;BME280;39616;48.872;9.390;2023-04-28T08:35:54;97997.63;;;10.96;100.00
53719;BME280;39616;48.872;9.390;2023-04-28T08:38:25;97998.13;;;10.98;100.00
53719;BME280;39616;48.872;9.390;2023-04-28T08:40:55;97987.75;;;11.00;100.00
53719;BME280;39616;48.872;9.390;2023-04-28T08:43:26;97988.13;;;11.07;100.00
53719;BME280;39616;48.872;9.390;2023-04-28T08:45:58;97984.50;;;11.11;100.00
53719;BME280;39616;48.872;9.390;2023-04-28T08:48:33;97984.06;;;11.18;100.00
53719;BME280;39616;48.872;9.390;2023-04-28T08:51:08;97987.84;;;11.31;100.00
53719;BME280;39616;48.872;9.390;2023-04-28T08:53:43;97995.09;;;11.44;100.00
53719;BME280;39616;48.872;9.390;2023-04-28T08:56:14;98001.25;;;11.58;100.00
53719;BME280;39616;48.872;9.390;2023-04-28T08:58:45;97999.88;;;11.70;100.00
53719;BME280;39616;48.872;9.390;2023-04-28T09:01:16;98005.06;;;11.80;100.00
53719;BME280;39616;48.872;9.390;2023-04-28T09:03:46;98006.06;;;11.84;100.00
53719;BME280;39616;48.872;9.390;2023-04-28T09:06:18;98012.28;;;11.84;100.00
53719;BME280;39616;48.872;9.390;2023-04-28T09:08:48;98024.28;;;11.83;100.00
53719;BME280;39616;48.872;9.390;2023-04-28T09:11:18;98013.09;;;11.85;100.00
53719;BME280;39616;48.872;9.390;2023-04-28T09:13:50;98009.50;;;11.98;100.00
53719;BME280;39616;48.872;9.390;2023-04-28T09:16:20;98014.66;;;12.08;100.00
53719;BME280;39616;48.872;9.390;2023-04-28T09:18:57;98015.19;;;12.19;100.00
53719;BME280;39616;48.872;9.390;2023-04-28T09:21:27;98023.00;;;12.21;100.00
53719;BME280;39616;48.872;9.390;2023-04-28T09:23:57;98006.38;;;12.22;100.00
53719;BME280;39616;48.872;9.390;2023-04-28T09:26:47;98008.94;;;12.19;100.00
53719;BME280;39616;48.872;9.390;2023-04-28T09:29:19;98006.09;;;12.32;100.00
53719;BME280;39616;48.872;9.390;2023-04-28T09:31:50;98006.44;;;12.40;100.00
53719;BME280;39616;48.872;9.390;2023-04-28T09:34:21;98019.25;;;12.48;100.00
53719;BME280;39616;48.872;9.390;2023-04-28T09:36:51;98013.34;;;12.54;100.00
53719;BME280;39616;48.872;9.390;2023-04-28T09:39:29;98018.78;;;12.54;100.00
53719;BME280;39616;48.872;9.390;2023-04-28T09:42:00;98020.09;;;12.66;100.00
53719;BME280;39616;48.872;9.390;2023-04-28T09:44:32;98010.22;;;12.78;100.00
53719;BME280;39616;48.872;9.390;2023-04-28T09:47:19;98008.44;;;12.82;100.00
53719;BME280;39616;48.872;9.390;2023-04-28T09:49:59;97996.44;;;13.01;100.00
53719;BME280;39616;48.872;9.390;2023-04-28T09:52:29;97993.41;;;13.28;100.00
53719;BME280;39616;48.872;9.390;2023-04-28T09:55:05;97982.34;;;13.42;100.00
53719;BME280;39616;48.872;9.390;2023-04-28T09:57:36;97984.09;;;13.47;100.00
53719;BME280;39616;48.872;9.390;2023-04-28T10:00:07;97993.72;;;13.53;100.00
53719;BME280;39616;48.872;9.390;2023-04-28T10:02:38;97988.75;;;13.55;100.00
53719;BME280;39616;48.872;9.390;2023-04-28T10:05:08;97994.47;;;13.71;100.00
53719;BME280;39616;48.872;9.390;2023-04-28T10:07:39;97990.44;;;13.77;100.00
53719;BME280;39616;48.872;9.390;2023-04-28T10:10:10;97988.66;;;13.90;100.00
53719;BME280;39616;48.872;9.390;2023-04-28T10:12:44;97992.41;;;14.06;100.00
53719;BME280;39616;48.872;9.390;2023-04-28T10:15:14;97994.44;;;14.26;100.00
53719;BME280;39616;48.872;9.390;2023-04-28T10:17:46;97986.84;;;14.32;100.00
53719;BME280;39616;48.872;9.390;2023-04-28T10:20:17;97983.38;;;14.23;100.00
53719;BME280;39616;48.872;9.390;2023-04-28T10:23:10;97985.41;;;14.35;100.00
53719;BME280;39616;48.872;9.390;2023-04-28T10:25:48;97983.22;;;14.79;100.00
53719;BME280;39616;48.872;9.390;2023-04-28T10:28:23;97973.91;;;15.01;100.00
53719;BME280;39616;48.872;9.390;2023-04-28T10:31:12;97983.84;;;14.84;100.00
53719;BME280;39616;48.872;9.390;2023-04-28T10:33:43;97979.72;;;14.78;100.00
53719;BME280;39616;48.872;9.390;2023-04-28T10:36:46;97977.78;;;14.79;100.00
53719;BME280;39616;48.872;9.390;2023-04-28T10:39:17;97983.38;;;14.82;100.00
53719;BME280;39616;48.872;9.390;2023-04-28T10:41:47;97983.47;;;15.28;100.00
53719;BME280;39616;48.872;9.390;2023-04-28T10:47:04;97983.00;;;15.92;100.00
53719;BME280;39616;48.872;9.390;2023-04-28T10:50:03;97978.72;;;16.28;100.00
53719;BME280;39616;48.872;9.390;2023-04-28T11:03:54;97990.44;;;16.04;100.00
53719;BME280;39616;48.872;9.390;2023-04-28T11:06:46;97993.50;;;16.02;100.00
53719;BME280;39616;48.872;9.390;2023-04-28T11:12:06;98001.69;;;15.90;100.00
53719;BME280;39616;48.872;9.390;2023-04-28T11:14:40;97991.41;;;15.87;100.00
53719;BME280;39616;48.872;9.390;2023-04-28T11:17:10;97995.91;;;15.58;100.00
53719;BME280;39616;48.872;9.390;2023-04-28T11:19:44;97999.53;;;15.50;100.00
53719;BME280;39616;48.872;9.390;2023-04-28T11:22:20;97999.31;;;15.34;100.00
53719;BME280;39616;48.872;9.390;2023-04-28T11:24:55;98000.63;;;15.49;100.00
53719;BME280;39616;48.872;9.390;2023-04-28T11:27:29;98000.84;;;15.44;100.00
53719;BME280;39616;48.872;9.390;2023-04-28T11:29:59;97994.09;;;15.62;100.00
53719;BME280;39616;48.872;9.390;2023-04-28T11:32:32;97997.25;;;15.64;100.00
53719;BME280;39616;48.872;9.390;2023-04-28T11:35:03;98002.22;;;15.71;100.00
53719;BME280;39616;48.872;9.390;2023-04-28T11:37:38;97995.50;;;15.48;100.00
53719;BME280;39616;48.872;9.390;2023-04-28T11:40:10;97999.41;;;15.59;100.00
53719;BME280;39616;48.872;9.390;2023-04-28T11:42:47;97999.19;;;15.64;100.00
53719;BME280;39616;48.872;9.390;2023-04-28T11:45:17;97994.06;;;15.83;100.00
53719;BME280;39616;48.872;9.390;2023-04-28T11:47:48;98000.75;;;15.74;100.00
53719;BME280;39616;48.872;9.390;2023-04-28T11:50:35;97999.06;;;15.81;100.00
53719;BME280;39616;48.872;9.390;2023-04-28T11:53:05;97993.09;;;15.67;100.00
53719;BME280;39616;48.872;9.390;2023-04-28T11:55:36;97990.38;;;15.79;100.00
53719;BME280;39616;48.872;9.390;2023-04-28T11:58:17;97994.59;;;15.77;100.00
53719;BME280;39616;48.872;9.390;2023-04-28T12:01:11;97991.41;;;15.75;100.00
53719;BME280;39616;48.872;9.390;2023-04-28T12:03:46;97992.78;;;15.48;100.00
53719;BME280;39616;48.872;9.390;2023-04-28T12:06:17;97993.84;;;15.34;100.00
53719;BME280;39616;48.872;9.390;2023-04-28T12:08:48;97981.75;;;15.02;100.00
53719;BME280;39616;48.872;9.390;2023-04-28T12:11:19;97981.88;;;15.06;100.00
53719;BME280;39616;48.872;9.390;2023-04-28T12:14:06;97987.03;;;15.07;100.00
53719;BME280;39616;48.872;9.390;2023-04-28T12:16:38;97979.38;;;15.21;100.00
53719;BME280;39616;48.872;9.390;2023-04-28T12:19:12;97983.47;;;15.28;100.00
53719;BME280;39616;48.872;9.390;2023-04-28T12:21:57;97984.69;;;15.18;100.00
53719;BME280;39616;48.872;9.390;2023-04-28T12:24:28;97991.09;;;15.22;100.00
53719;BME280;39616;48.872;9.390;2023-04-28T12:27:17;97994.22;;;15.33;100.00
53719;BME280;39616;48.872;9.390;2023-04-28T12:29:50;97999.53;;;15.29;100.00
53719;BME280;39616;48.872;9.390;2023-04-28T12:32:37;97998.34;;;15.18;100.00
53719;BME280;39616;48.872;9.390;2023-04-28T12:35:08;97993.03;;;15.21;100.00
53719;BME280;39616;48.872;9.390;2023-04-28T12:37:41;97997.09;;;15.15;100.00
53719;BME280;39616;48.872;9.390;2023-04-28T12:40:11;98015.88;;;14.96;100.00
53719;BME280;39616;48.872;9.390;2023-04-28T12:42:43;98022.66;;;14.90;100.00
53719;BME280;39616;48.872;9.390;2023-04-28T12:45:13;98018.84;;;14.82;100.00
53719;BME280;39616;48.872;9.390;2023-04-28T12:47:45;98039.41;;;14.80;100.00
53719;BME280;39616;48.872;9.390;2023-04-28T12:50:16;98037.91;;;14.61;100.00
53719;BME280;39616;48.872;9.390;2023-04-28T12:52:46;98048.69;;;14.19;100.00
53719;BME280;39616;48.872;9.390;2023-04-28T12:55:17;98047.38;;;13.61;100.00
53719;BME280;39616;48.872;9.390;2023-04-28T12:57:47;98047.56;;;13.39;100.00
53719;BME280;39616;48.872;9.390;2023-04-28T13:00:17;98049.00;;;13.19;100.00
53719;BME280;39616;48.872;9.390;2023-04-28T13:02:52;98042.75;;;13.18;100.00
53719;BME280;39616;48.872;9.390;2023-04-28T13:05:22;98034.44;;;13.23;100.00
53719;BME280;39616;48.872;9.390;2023-04-28T13:07:53;98013.72;;;13.14;100.00
53719;BME280;39616;48.872;9.390;2023-04-28T13:10:23;98005.72;;;13.17;100.00
53719;BME280;39616;48.872;9.390;2023-04-28T13:12:55;98006.38;;;13.23;100.00
53719;BME280;39616;48.872;9.390;2023-04-28T13:15:25;97994.38;;;13.33;100.00
53719;BME280;39616;48.872;9.390;2023-04-28T13:17:56;97995.50;;;13.49;100.00
53719;BME280;39616;48.872;9.390;2023-04-28T13:20:31;97994.81;;;13.61;100.00
53719;BME280;39616;48.872;9.390;2023-04-28T13:23:01;97987.25;;;13.75;100.00
53719;BME280;39616;48.872;9.390;2023-04-28T13:25:31;97973.00;;;13.69;100.00
53719;BME280;39616;48.872;9.390;2023-04-28T13:28:01;97972.78;;;13.83;100.00
53719;BME280;39616;48.872;9.390;2023-04-28T13:30:32;97974.81;;;13.95;100.00
53719;BME280;39616;48.872;9.390;2023-04-28T13:33:03;97978.22;;;13.92;100.00